createdAt,value
2022-09-04T00:01:12.170Z,100.00
2022-09-04T00:03:52.188Z,100.00
2022-09-04T00:06:27.408Z,100.00
2022-09-04T00:09:52.723Z,100.00
2022-09-04T00:12:36.425Z,100.00
2022-09-04T00:15:38.113Z,100.00
2022-09-04T00:18:34.560Z,100.00
2022-09-04T00:21:22.793Z,100.00
2022-09-04T00:24:15.142Z,100.00
2022-09-04T00:27:15.851Z,100.00
2022-09-04T00:30:05.018Z,100.00
2022-09-04T00:32:45.247Z,100.00
2022-09-04T00:35:18.640Z,100.00
2022-09-04T00:38:17.302Z,100.00
2022-09-04T00:41:13.822Z,100.00
2022-09-04T00:47:14.024Z,100.00
2022-09-04T00:50:13.529Z,100.00
2022-09-04T00:52:50.216Z,100.00
2022-09-04T00:55:56.542Z,100.00
2022-09-04T00:58:51.177Z,100.00
2022-09-04T01:01:36.777Z,100.00
2022-09-04T01:04:27.209Z,100.00
2022-09-04T01:07:25.203Z,100.00
2022-09-04T01:10:31.038Z,100.00
2022-09-04T01:13:17.343Z,100.00
2022-09-04T01:16:31.778Z,100.00
2022-09-04T01:19:39.201Z,100.00
2022-09-04T01:22:52.391Z,100.00
2022-09-04T01:25:56.203Z,100.00
2022-09-04T01:29:07.886Z,100.00
2022-09-04T01:31:54.623Z,100.00
2022-09-04T01:34:55.239Z,100.00
2022-09-04T01:38:20.791Z,100.00
2022-09-04T01:40:57.050Z,100.00
2022-09-04T01:43:38.344Z,100.00
2022-09-04T01:46:27.406Z,100.00
2022-09-04T01:49:22.866Z,100.00
2022-09-04T01:52:07.252Z,100.00
2022-09-04T01:54:43.842Z,100.00
2022-09-04T01:57:22.078Z,100.00
2022-09-04T02:00:11.309Z,100.00
2022-09-04T02:02:47.653Z,100.00
2022-09-04T02:05:30.935Z,100.00
2022-09-04T02:08:36.259Z,100.00
2022-09-04T02:11:28.236Z,100.00
2022-09-04T02:14:41.523Z,100.00
2022-09-04T02:17:48.100Z,100.00
2022-09-04T02:20:29.480Z,100.00
2022-09-04T02:23:38.270Z,100.00
2022-09-04T02:26:30.544Z,100.00
2022-09-04T02:29:16.127Z,100.00
2022-09-04T02:32:16.748Z,100.00
2022-09-04T02:35:00.079Z,100.00
2022-09-04T02:37:53.528Z,100.00
2022-09-04T02:40:55.557Z,100.00
2022-09-04T02:43:50.650Z,100.00
2022-09-04T02:46:44.257Z,100.00
2022-09-04T02:49:29.654Z,100.00
2022-09-04T02:52:33.886Z,100.00
2022-09-04T02:55:37.821Z,100.00
2022-09-04T02:58:40.129Z,100.00
2022-09-04T03:01:25.089Z,100.00
2022-09-04T03:04:16.654Z,100.00
2022-09-04T03:07:36.092Z,100.00
2022-09-04T03:10:34.342Z,100.00
2022-09-04T03:13:09.446Z,100.00
2022-09-04T03:15:44.220Z,100.00
2022-09-04T03:18:23.202Z,100.00
2022-09-04T03:21:04.779Z,100.00
2022-09-04T03:23:52.342Z,100.00
2022-09-04T03:26:29.422Z,100.00
2022-09-04T03:29:05.542Z,100.00
2022-09-04T03:32:00.788Z,100.00
2022-09-04T03:35:20.610Z,100.00
2022-09-04T03:38:04.547Z,100.00
2022-09-04T03:40:37.512Z,100.00
2022-09-04T03:43:44.430Z,100.00
2022-09-04T03:46:39.608Z,100.00
2022-09-04T03:49:35.987Z,100.00
2022-09-04T03:52:17.727Z,100.00
2022-09-04T03:54:55.231Z,100.00
2022-09-04T03:57:38.279Z,100.00
2022-09-04T04:00:21.876Z,100.00
2022-09-04T04:03:05.898Z,100.00
2022-09-04T04:05:44.243Z,100.00
2022-09-04T04:08:42.490Z,100.00
2022-09-04T04:11:32.754Z,100.00
2022-09-04T04:14:38.220Z,100.00
2022-09-04T04:17:37.015Z,100.00
2022-09-04T04:20:24.428Z,100.00
2022-09-04T04:23:29.413Z,100.00
2022-09-04T04:26:14.998Z,100.00
2022-09-04T04:29:03.091Z,100.00
2022-09-04T04:32:10.457Z,100.00
2022-09-04T04:35:12.696Z,100.00
2022-09-04T04:37:54.186Z,100.00
2022-09-04T04:41:00.335Z,100.00
2022-09-04T04:43:45.161Z,100.00
2022-09-04T04:46:33.382Z,100.00
2022-09-04T04:49:38.634Z,100.00
2022-09-04T04:52:44.396Z,100.00
2022-09-04T04:55:15.588Z,100.00
2022-09-04T04:57:54.731Z,100.00
2022-09-04T05:00:27.974Z,100.00
2022-09-04T05:03:15.505Z,100.00
2022-09-04T05:05:59.570Z,100.00
2022-09-04T05:09:03.726Z,100.00
2022-09-04T05:11:40.008Z,100.00
2022-09-04T05:14:28.070Z,100.00
2022-09-04T05:17:15.081Z,100.00
2022-09-04T05:19:50.268Z,100.00
2022-09-04T05:22:35.178Z,100.00
2022-09-04T05:25:07.694Z,100.00
2022-09-04T05:28:21.626Z,100.00
2022-09-04T05:31:02.517Z,100.00
2022-09-04T05:33:28.940Z,100.00
2022-09-04T05:36:08.772Z,100.00
2022-09-04T05:38:44.152Z,100.00
2022-09-04T05:41:34.125Z,100.00
2022-09-04T05:44:08.382Z,100.00
2022-09-04T05:46:42.920Z,100.00
2022-09-04T05:49:32.913Z,100.00
2022-09-04T05:52:21.226Z,100.00
2022-09-04T05:55:11.113Z,100.00
2022-09-04T05:58:23.733Z,100.00
2022-09-04T06:00:56.398Z,100.00
2022-09-04T06:03:41.149Z,100.00
2022-09-04T06:06:26.693Z,100.00
2022-09-04T06:09:28.363Z,100.00
2022-09-04T06:12:28.869Z,100.00
2022-09-04T06:14:58.762Z,100.00
2022-09-04T06:17:51.146Z,100.00
2022-09-04T06:20:29.670Z,100.00
2022-09-04T06:23:09.431Z,100.00
2022-09-04T06:26:13.861Z,100.00
2022-09-04T06:29:05.960Z,100.00
2022-09-04T06:31:43.453Z,100.00
2022-09-04T06:34:43.164Z,100.00
2022-09-04T06:37:33.209Z,100.00
2022-09-04T06:40:10.525Z,100.00
2022-09-04T06:43:00.069Z,100.00
2022-09-04T06:45:55.866Z,100.00
2022-09-04T06:48:37.197Z,100.00
2022-09-04T06:51:18.511Z,100.00
2022-09-04T06:54:49.781Z,100.00
2022-09-04T06:57:30.645Z,100.00
2022-09-04T07:00:08.467Z,100.00
2022-09-04T07:02:44.614Z,100.00
2022-09-04T07:05:31.358Z,100.00
2022-09-04T07:08:13.094Z,100.00
2022-09-04T07:10:45.682Z,100.00
2022-09-04T07:13:54.281Z,100.00
2022-09-04T07:17:05.592Z,100.00
2022-09-04T07:19:38.229Z,100.00
2022-09-04T07:22:05.102Z,100.00
2022-09-04T07:24:57.069Z,100.00
2022-09-04T07:27:40.631Z,100.00
2022-09-04T07:30:09.279Z,100.00
2022-09-04T07:32:59.619Z,100.00
2022-09-04T07:35:57.029Z,100.00
2022-09-04T07:38:26.315Z,100.00
2022-09-04T07:41:02.115Z,100.00
2022-09-04T07:43:42.452Z,100.00
2022-09-04T07:46:25.185Z,100.00
2022-09-04T07:49:09.979Z,100.00
2022-09-04T07:51:47.488Z,100.00
2022-09-04T07:54:29.501Z,100.00
2022-09-04T07:57:28.794Z,100.00
2022-09-04T08:00:05.055Z,100.00
2022-09-04T08:03:11.957Z,98.16
2022-09-04T08:05:49.357Z,97.88
2022-09-04T08:08:31.475Z,97.60
2022-09-04T08:11:30.700Z,96.10
2022-09-04T08:14:23.395Z,95.59
2022-09-04T08:17:00.602Z,95.79
2022-09-04T08:19:54.700Z,93.43
2022-09-04T08:22:37.637Z,93.27
2022-09-04T08:25:29.929Z,91.75
2022-09-04T08:28:46.476Z,88.52
2022-09-04T08:31:24.225Z,89.58
2022-09-04T08:34:00.077Z,87.97
2022-09-04T08:36:39.496Z,87.54
2022-09-04T08:39:28.920Z,86.32
2022-09-04T08:42:05.774Z,84.81
2022-09-04T08:44:35.073Z,85.29
2022-09-04T08:47:28.394Z,85.97
2022-09-04T08:50:23.862Z,84.85
2022-09-04T08:53:08.993Z,82.37
2022-09-04T08:56:06.351Z,83.14
2022-09-04T08:58:54.200Z,83.36
2022-09-04T09:01:37.382Z,82.26
2022-09-04T09:04:47.738Z,81.27
2022-09-04T09:08:04.926Z,79.90
2022-09-04T09:11:10.506Z,79.02
2022-09-04T09:14:02.123Z,79.07
2022-09-04T09:16:43.124Z,78.49
2022-09-04T09:19:47.406Z,79.33
2022-09-04T09:22:49.498Z,77.58
2022-09-04T09:25:23.976Z,78.22
2022-09-04T09:28:23.375Z,76.35
2022-09-04T09:31:12.340Z,74.63
2022-09-04T09:34:00.648Z,75.60
2022-09-04T09:37:04.749Z,75.56
2022-09-04T09:40:01.479Z,74.75
2022-09-04T09:42:48.314Z,72.93
2022-09-04T09:45:37.801Z,73.09
2022-09-04T09:48:37.997Z,73.61
2022-09-04T09:51:34.873Z,73.94
2022-09-04T09:54:42.114Z,73.01
2022-09-04T09:57:29.699Z,72.04
2022-09-04T10:00:21.217Z,71.06
2022-09-04T10:03:24.661Z,69.67
2022-09-04T10:06:27.242Z,69.30
2022-09-04T10:09:39.049Z,69.60
2022-09-04T10:12:43.897Z,67.89
2022-09-04T10:15:10.382Z,67.68
2022-09-04T10:18:07.229Z,65.82
2022-09-04T10:20:53.952Z,66.74
2022-09-04T10:23:31.191Z,66.04
2022-09-04T10:26:16.052Z,64.79
2022-09-04T10:28:57.087Z,64.08
2022-09-04T10:31:47.364Z,63.68
2022-09-04T10:34:38.819Z,63.16
2022-09-04T10:37:30.045Z,65.01
2022-09-04T10:40:33.690Z,62.89
2022-09-04T10:43:32.140Z,62.72
2022-09-04T10:46:22.678Z,61.78
2022-09-04T10:49:12.092Z,59.65
2022-09-04T10:52:04.941Z,59.97
2022-09-04T10:55:14.800Z,59.55
2022-09-04T10:57:59.777Z,58.96
2022-09-04T11:00:53.393Z,58.22
2022-09-04T11:03:46.955Z,60.74
2022-09-04T11:06:26.297Z,57.69
2022-09-04T11:09:00.479Z,56.75
2022-09-04T11:11:45.165Z,58.03
2022-09-04T11:14:35.693Z,56.01
2022-09-04T11:17:14.241Z,54.58
2022-09-04T11:20:17.594Z,54.48
2022-09-04T11:23:22.684Z,52.40
2022-09-04T11:26:37.959Z,53.32
2022-09-04T11:29:22.402Z,52.11
2022-09-04T11:32:12.070Z,51.08
2022-09-04T11:35:00.540Z,50.61
2022-09-04T11:37:38.674Z,49.57
2022-09-04T11:40:39.124Z,49.96
2022-09-04T11:43:29.777Z,47.94
2022-09-04T11:46:27.259Z,47.92
2022-09-04T11:49:13.281Z,47.97
2022-09-04T11:52:18.096Z,48.63
2022-09-04T11:55:26.194Z,46.16
2022-09-04T11:58:08.366Z,48.43
2022-09-04T12:01:09.273Z,48.73
2022-09-04T12:04:01.881Z,49.07
2022-09-04T12:07:02.314Z,49.24
2022-09-04T12:09:28.972Z,49.58
2022-09-04T12:12:14.459Z,50.15
2022-09-04T12:15:08.553Z,51.39
2022-09-04T12:17:57.180Z,50.94
2022-09-04T12:20:31.039Z,50.58
2022-09-04T12:23:03.760Z,51.53
2022-09-04T12:25:39.353Z,51.25
2022-09-04T12:28:25.052Z,50.87
2022-09-04T12:31:10.272Z,51.64
2022-09-04T12:33:49.160Z,51.78
2022-09-04T12:36:26.419Z,51.22
2022-09-04T12:39:03.505Z,53.15
2022-09-04T12:41:56.454Z,52.17
2022-09-04T12:44:42.454Z,52.37
2022-09-04T12:47:33.151Z,51.96
2022-09-04T12:50:17.848Z,52.59
2022-09-04T12:53:25.796Z,51.53
2022-09-04T12:56:03.815Z,50.97
2022-09-04T12:58:36.300Z,49.02
2022-09-04T13:01:19.281Z,48.52
2022-09-04T13:04:22.085Z,45.99
2022-09-04T13:07:07.087Z,46.70
2022-09-04T13:10:07.409Z,45.37
2022-09-04T13:12:46.253Z,45.99
2022-09-04T13:15:51.065Z,44.57
2022-09-04T13:18:44.640Z,43.96
2022-09-04T13:21:51.593Z,43.05
2022-09-04T13:24:26.576Z,40.97
2022-09-04T13:27:07.600Z,42.20
2022-09-04T13:29:50.532Z,43.32
2022-09-04T13:32:41.906Z,42.47
2022-09-04T13:35:50.344Z,41.43
2022-09-04T13:38:58.230Z,40.46
2022-09-04T13:41:50.758Z,40.87
2022-09-04T13:44:54.374Z,40.86
2022-09-04T13:47:31.936Z,41.34
2022-09-04T13:50:17.286Z,41.93
2022-09-04T13:52:59.726Z,41.74
2022-09-04T13:55:34.713Z,40.94
2022-09-04T13:58:13.987Z,42.18
2022-09-04T14:00:49.377Z,41.90
2022-09-04T14:03:38.369Z,42.63
2022-09-04T14:06:08.718Z,41.43
2022-09-04T14:08:37.661Z,42.06
2022-09-04T14:11:19.252Z,42.23
2022-09-04T14:13:50.961Z,42.45
2022-09-04T14:16:18.876Z,43.67
2022-09-04T14:18:59.176Z,40.29
2022-09-04T14:21:44.297Z,42.24
2022-09-04T14:24:38.663Z,41.48
2022-09-04T14:27:28.750Z,39.87
2022-09-04T14:30:17.082Z,40.05
2022-09-04T14:32:56.886Z,42.18
2022-09-04T14:35:36.448Z,41.31
2022-09-04T14:38:25.032Z,41.54
2022-09-04T14:41:18.818Z,41.90
2022-09-04T14:43:59.385Z,43.09
2022-09-04T14:46:38.438Z,43.46
2022-09-04T14:49:08.689Z,42.36
2022-09-04T14:51:46.454Z,42.44
2022-09-04T14:54:23.012Z,41.96
2022-09-04T14:56:56.683Z,41.19
2022-09-04T14:59:37.245Z,40.88
2022-09-04T15:02:10.261Z,41.68
2022-09-04T15:05:14.606Z,40.55
2022-09-04T15:07:43.808Z,40.42
2022-09-04T15:10:31.565Z,40.57
2022-09-04T15:13:14.718Z,39.50
2022-09-04T15:15:49.619Z,39.89
2022-09-04T15:18:58.993Z,41.02
2022-09-04T15:21:37.466Z,41.09
2022-09-04T15:24:15.487Z,41.08
2022-09-04T15:26:55.611Z,42.18
2022-09-04T15:29:57.398Z,41.72
2022-09-04T15:32:26.645Z,41.70
2022-09-04T15:35:21.115Z,41.80
2022-09-04T15:37:51.585Z,42.28
2022-09-04T15:40:28.445Z,41.98
2022-09-04T15:43:10.117Z,41.90
2022-09-04T15:45:57.928Z,41.56
2022-09-04T15:48:40.433Z,43.01
2022-09-04T15:51:15.995Z,40.92
2022-09-04T15:54:00.637Z,40.94
2022-09-04T15:56:49.522Z,40.61
2022-09-04T15:59:20.356Z,41.78
2022-09-04T16:01:55.821Z,43.07
2022-09-04T16:04:34.866Z,42.96
2022-09-04T16:07:20.247Z,42.46
2022-09-04T16:09:53.534Z,41.93
2022-09-04T16:12:32.030Z,41.86
2022-09-04T16:15:05.608Z,41.98
2022-09-04T16:17:42.351Z,41.48
2022-09-04T16:20:20.658Z,41.33
2022-09-04T16:22:58.483Z,43.02
2022-09-04T16:25:40.521Z,43.70
2022-09-04T16:28:40.885Z,44.63
2022-09-04T16:31:12.920Z,42.72
2022-09-04T16:33:53.324Z,42.42
2022-09-04T16:36:36.089Z,41.88
2022-09-04T16:39:25.340Z,42.53
2022-09-04T16:42:10.424Z,42.27
2022-09-04T16:44:45.388Z,42.20
2022-09-04T16:47:40.843Z,43.55
2022-09-04T16:50:35.526Z,42.24
2022-09-04T16:53:29.177Z,43.42
2022-09-04T16:56:09.311Z,42.87
2022-09-04T16:59:00.287Z,43.14
2022-09-04T17:01:32.225Z,43.29
2022-09-04T17:04:13.645Z,44.00
2022-09-04T17:07:12.143Z,43.68
2022-09-04T17:10:01.615Z,44.05
2022-09-04T17:12:34.178Z,44.52
2022-09-04T17:15:53.686Z,45.48
2022-09-04T17:18:26.401Z,48.38
2022-09-04T17:22:44.920Z,50.27
2022-09-04T17:29:08.639Z,51.05
2022-09-04T17:29:17.724Z,51.31
2022-09-04T17:30:31.609Z,51.65
2022-09-04T17:36:23.581Z,52.44
2022-09-04T17:40:43.796Z,53.61
2022-09-04T17:40:55.712Z,54.43
2022-09-04T17:42:16.798Z,54.33
2022-09-04T17:45:10.086Z,55.09
2022-09-04T17:47:45.339Z,55.44
2022-09-04T17:50:16.463Z,55.32
2022-09-04T17:53:02.125Z,55.00
2022-09-04T17:55:39.039Z,55.54
2022-09-04T17:58:26.425Z,56.22
2022-09-04T18:01:15.538Z,56.63
2022-09-04T18:04:08.118Z,57.00
2022-09-04T18:06:44.410Z,57.36
2022-09-04T18:09:26.852Z,57.82
2022-09-04T18:12:04.501Z,58.86
2022-09-04T18:14:37.503Z,57.90
2022-09-04T18:17:29.090Z,58.44
2022-09-04T18:20:10.578Z,59.13
2022-09-04T18:23:14.451Z,58.93
2022-09-04T18:25:59.550Z,59.55
2022-09-04T18:28:56.885Z,59.67
2022-09-04T18:37:09.174Z,59.73
2022-09-04T18:37:23.209Z,60.70
2022-09-04T18:37:47.357Z,60.99
2022-09-04T18:41:22.186Z,60.36
2022-09-04T18:50:20.804Z,61.12
2022-09-04T18:50:32.099Z,62.22
2022-09-04T18:50:50.997Z,62.16
2022-09-04T18:52:04.583Z,62.33
2022-09-04T18:54:42.486Z,62.45
2022-09-04T18:57:33.727Z,62.47
2022-09-04T19:00:10.477Z,63.05
2022-09-04T19:02:53.456Z,62.64
2022-09-04T19:05:22.070Z,62.89
2022-09-04T19:08:02.735Z,62.85
2022-09-04T19:10:50.624Z,63.43
2022-09-04T19:13:30.461Z,64.16
2022-09-04T19:16:08.797Z,65.55
2022-09-04T19:18:45.362Z,68.30
2022-09-04T19:21:17.484Z,67.72
2022-09-04T19:23:58.891Z,69.31
2022-09-04T19:26:46.593Z,70.87
2022-09-04T19:29:38.559Z,70.57
2022-09-04T19:32:12.132Z,71.26
2022-09-04T19:35:15.603Z,72.70
2022-09-04T19:39:32.854Z,73.27
2022-09-04T19:46:03.652Z,72.71
2022-09-04T19:46:13.432Z,74.19
2022-09-04T19:47:09.546Z,75.42
2022-09-04T19:52:50.038Z,75.67
2022-09-04T19:53:35.806Z,75.95
2022-09-04T19:55:48.698Z,76.08
2022-09-04T19:58:25.132Z,76.22
2022-09-04T20:00:58.119Z,76.48
2022-09-04T20:03:33.440Z,77.71
2022-09-04T20:06:20.741Z,77.78
2022-09-04T20:08:59.189Z,78.34
2022-09-04T20:11:35.619Z,79.07
2022-09-04T20:14:14.187Z,78.98
2022-09-04T20:17:05.889Z,78.57
2022-09-04T20:19:47.256Z,79.06
2022-09-04T20:22:28.703Z,78.87
2022-09-04T20:25:28.506Z,79.59
2022-09-04T20:28:15.767Z,79.90
2022-09-04T20:30:47.818Z,81.12
2022-09-04T20:33:24.610Z,80.97
2022-09-04T20:36:22.835Z,81.30
2022-09-04T20:39:19.709Z,81.38
2022-09-04T20:41:56.657Z,81.50
2022-09-04T20:47:26.157Z,82.30
2022-09-04T20:52:42.204Z,82.93
2022-09-04T20:53:05.756Z,83.24
2022-09-04T20:54:06.305Z,83.62
2022-09-04T20:58:04.120Z,84.36
2022-09-04T21:03:15.015Z,85.25
2022-09-04T21:06:28.550Z,85.44
2022-09-04T21:09:16.362Z,86.17
2022-09-04T21:11:50.108Z,86.27
2022-09-04T21:14:26.918Z,86.29
2022-09-04T21:17:29.881Z,86.91
2022-09-04T21:20:26.520Z,86.88
2022-09-04T21:23:57.880Z,86.88
2022-09-04T21:26:44.257Z,87.60
2022-09-04T21:29:32.010Z,87.71
2022-09-04T21:32:08.566Z,87.96
2022-09-04T21:34:53.880Z,88.22
2022-09-04T21:37:29.839Z,87.58
2022-09-04T21:40:51.924Z,88.29
2022-09-04T21:43:40.518Z,88.37
2022-09-04T21:46:46.079Z,89.14
2022-09-04T21:49:26.770Z,89.01
2022-09-04T21:51:56.348Z,89.36
2022-09-04T21:59:04.677Z,89.18
2022-09-04T22:02:36.259Z,90.76
2022-09-04T22:02:45.890Z,91.61
2022-09-04T22:04:25.457Z,91.59
2022-09-04T22:10:38.513Z,92.06
2022-09-04T22:13:39.584Z,91.95
2022-09-04T22:13:43.727Z,92.00
2022-09-04T22:16:34.916Z,92.11
2022-09-04T22:19:16.092Z,93.19
2022-09-04T22:21:52.281Z,93.80
2022-09-04T22:24:30.898Z,93.31
2022-09-04T22:27:07.891Z,93.28
2022-09-04T22:30:11.214Z,93.97
2022-09-04T22:32:46.721Z,95.23
2022-09-04T22:35:35.677Z,94.94
2022-09-04T22:38:11.473Z,95.04
2022-09-04T22:40:57.197Z,94.71
2022-09-04T22:43:26.031Z,94.25
2022-09-04T22:46:33.399Z,93.95
2022-09-04T22:49:20.853Z,94.10
2022-09-04T22:52:10.069Z,94.91
2022-09-04T22:55:17.613Z,94.36
2022-09-04T22:58:18.107Z,94.84
2022-09-04T23:01:06.633Z,95.25
2022-09-04T23:03:49.019Z,96.07
2022-09-04T23:06:54.399Z,95.59
2022-09-04T23:13:56.778Z,95.51
2022-09-04T23:13:57.111Z,95.50
2022-09-04T23:16:18.091Z,95.61
2022-09-04T23:23:18.704Z,95.71
2022-09-04T23:26:37.263Z,96.41
2022-09-04T23:26:43.221Z,96.54
2022-09-04T23:28:41.157Z,97.02
2022-09-04T23:31:37.303Z,97.38
2022-09-04T23:34:37.971Z,97.35
2022-09-04T23:37:27.836Z,98.55
2022-09-04T23:40:43.590Z,98.45
2022-09-04T23:44:07.206Z,100.00
2022-09-04T23:46:45.775Z,100.00
2022-09-04T23:49:34.826Z,100.00
2022-09-04T23:52:08.037Z,100.00
2022-09-04T23:55:03.270Z,100.00
2022-09-04T23:57:44.829Z,100.00
